CheckWX is a tool to help pilots better visualize weather data.  It is not intended as a substitute for an official pre-flight weather briefing.

23:28:13 UTC

NY0 METAR
Fulton County Airport
Johnstown, New York, USA
Current

33 mins ago

KNY0 192255Z AUTO 30005KT 10SM CLR 27/26 A2984 RMK AO2
Observed
Jul-19 @ 22:55 UTC
Wind
  • 300° at 5 KTS
Visibility
10 SM
Flight Rules
VFR
Cloud Levels
  • Clear skies
Temperature
27°C / 81°F
Dewpoint
26°C / 79°F
Heat Index
32°C / 89°F
Humidity
94%
Altimeter
29.84" Hg
Pressure
1010.52 hPa
Previous

52 mins ago

KNY0 192236Z AUTO 30006KT 10SM CLR 27/26 A2983 RMK AO2
Observed
Jul-19 @ 22:36 UTC
Wind
  • 300° at 6 KTS
Visibility
10 SM
Flight Rules
VFR
Cloud Levels
  • Clear skies
Temperature
27°C / 81°F
Dewpoint
26°C / 79°F
Heat Index
32°C / 89°F
Humidity
94%
Altimeter
29.83" Hg
Pressure
1010.12 hPa
Previous

1 hour ago

KNY0 192216Z AUTO 28009KT 10SM SCT044 SCT050 27/27 A2983 RMK AO2
Observed
Jul-19 @ 22:16 UTC
Wind
  • 280° at 9 KTS
Visibility
10 SM
Flight Rules
VFR
Cloud Levels
  • Scattered at 4,400' AGL
  • Scattered at 5,000' AGL
Temperature
27°C / 81°F
Dewpoint
27°C / 81°F
Heat Index
33°C / 91°F
Humidity
100%
Altimeter
29.83" Hg
Pressure
1010.12 hPa